Flight Track Log - Related Links

Times and Time Zones

All times are in EDT time to prevent confusion due to time zone crossing. See the N6182A flight status page for this flight to view local times or setup timezone preferences in your user account.

Time Position Orientation Groundspeed Altitude Reporting Facility
EDT Latitude Longitude Course Direction KTS MPH feet Rate Location/Type
Wed 09:06:46 AM 32.7167 -83.6667 26° Northeast 160 184 1,900  Level Atlanta TRACON
Wed 09:08:20 AM 32.7792 -83.6311 26° Northeast 167 192 5,200 2,221 Climbing Atlanta Center
Wed 09:09:20 AM 32.8250 -83.5989 31° Northeast 181 208 7,600 2,350 Climbing Atlanta Center
Wed 09:10:20 AM 32.8686 -83.5714 28° Northeast 181 208 9,900 1,700 Climbing Atlanta Center
Wed 09:11:20 AM 32.9208 -83.5439 24° Northeast 181 208 11,000 550 Climbing Atlanta Center
Wed 09:12:20 AM 32.9811 -83.4989 32° Northeast 216 249 11,000  Level Atlanta Center
Wed 09:13:20 AM 33.0478 -83.4589 27° Northeast 241 277 11,000  Level Atlanta Center
Wed 09:14:20 AM 33.1100 -83.4139 31° Northeast 258 297 11,000  Level Atlanta Center
Wed 09:15:20 AM 33.1767 -83.3736 27° Northeast 258 297 11,000 450 Level Atlanta Center
Wed 09:16:20 AM 33.2392 -83.3311 30° Northeast 258 297 11,900 1,450 Climbing Atlanta Center
Wed 09:17:20 AM 33.2953 -83.2958 28° Northeast 247 284 13,900 1,550 Climbing Atlanta Center
Wed 09:18:20 AM 33.3450 -83.2606 31° Northeast 222 255 15,000 550 Climbing Atlanta Center
Wed 09:19:20 AM 33.4075 -83.2225 27° Northeast 226 260 15,000  Level Atlanta Center
Wed 09:20:20 AM 33.4719 -83.1772 30° Northeast 244 281 15,000  Level Atlanta Center
Wed 09:21:20 AM 33.5403 -83.1317 29° Northeast 262 302 15,000  Level Atlanta Center
Wed 09:22:20 AM 33.6069 -83.0861 30° Northeast 268 308 15,000  Level Atlanta Center
Wed 09:23:20 AM 33.6753 -83.0403 29° Northeast 268 308 15,000  Level Atlanta Center
Wed 09:24:20 AM 33.7481 -82.9944 28° Northeast 268 308 15,000  Level Atlanta Center
Wed 09:25:20 AM 33.8144 -82.9511 28° Northeast 268 308 15,000 -200 Level Atlanta Center
Wed 09:26:20 AM 33.8831 -82.9053 29° Northeast 268 308 14,600 -850 Descending Atlanta Center
Wed 09:27:20 AM 33.9575 -82.8567 28° Northeast 278 320 13,300 -1,350 Descending Atlanta Center
Wed 09:28:20 AM 34.0322 -82.8056 30° Northeast 290 334 11,900 -1,150 Descending Atlanta Center
Wed 09:29:20 AM 34.1028 -82.7569 30° Northeast 290 334 11,000 -450 Descending Atlanta Center
Wed 09:30:20 AM 34.1689 -82.7106 30° Northeast 283 326 11,000  Level Atlanta Center
Wed 09:31:20 AM 34.2375 -82.6719 25° Northeast 278 320 11,000  Level Atlanta Center
Wed 09:32:20 AM 34.2953 -82.6256 34° Northeast 262 302 11,000  Level Atlanta Center
Wed 09:33:20 AM 34.3678 -82.5792 28° Northeast 254 292 11,000 -400 Level Atlanta Center
Wed 09:34:20 AM 34.4342 -82.5328 30° Northeast 264 304 10,200 -500 Descending Atlanta Center
Wed 09:35:20 AM 34.5022 -82.4836 31° Northeast 269 310 10,000 -100 Descending Atlanta Center
Wed 09:36:20 AM 34.5536 -82.4219 45° Northeast 264 304 10,000 -350 Level Atlanta Center
Wed 09:37:20 AM 34.6114 -82.3603 41° Northeast 264 304 9,300 -1,000 Descending Atlanta Center
Wed 09:38:20 AM 34.6689 -82.2961 43° Northeast 269 310 8,000 -1,600 Descending Atlanta Center
Wed 09:39:20 AM 34.7306 -82.2292 42° Northeast 274 315 6,100 -1,900 Descending Atlanta Center
Wed 09:41:00 AM 34.8480 -82.2348 32° Northeast  Level FlightAware
Wed 09:48:00 AM 34.8957 -82.2189 22° Northeast  Level Estimated
Wed 09:49:00 AM 34.8957 -82.2189 22° Northeast  Level Estimated
Wed 09:50:00 AM 34.8957 -82.2189 22° Northeast  Level Estimated
Wed 09:51:00 AM 34.8957 -82.2189 22° Northeast  Level Estimated

Login

Don't have an account? Register now (free) for customized features, flight alerts, and more!